createdAt,value
2023-03-31T00:00:11.964Z,24.12
2023-03-31T00:02:44.204Z,24.12
2023-03-31T00:05:10.559Z,24.07
2023-03-31T00:07:39.898Z,24.10
2023-03-31T00:10:17.203Z,24.09
2023-03-31T00:12:44.441Z,24.06
2023-03-31T00:15:10.861Z,24.05
2023-03-31T00:17:37.187Z,24.07
2023-03-31T00:20:05.718Z,24.06
2023-03-31T00:22:32.045Z,24.02
2023-03-31T00:24:58.350Z,24.01
2023-03-31T00:27:24.660Z,24.01
2023-03-31T00:29:53.049Z,24.00
2023-03-31T00:32:19.379Z,23.97
2023-03-31T00:34:46.191Z,23.95
2023-03-31T00:37:15.971Z,23.94
2023-03-31T00:39:43.235Z,23.94
2023-03-31T00:42:12.818Z,23.90
2023-03-31T00:45:03.096Z,23.89
2023-03-31T00:47:29.869Z,23.89
2023-03-31T00:49:59.692Z,23.85
2023-03-31T00:52:38.250Z,23.85
2023-03-31T00:55:06.566Z,23.83
2023-03-31T00:57:33.255Z,23.80
2023-03-31T01:00:01.321Z,23.78
2023-03-31T01:02:27.777Z,23.76
2023-03-31T01:04:59.248Z,23.69
2023-03-31T01:07:38.950Z,23.68
2023-03-31T01:10:05.463Z,23.71
2023-03-31T01:12:32.457Z,23.67
2023-03-31T01:14:58.813Z,23.68
2023-03-31T01:17:25.284Z,23.63
2023-03-31T01:20:18.145Z,23.64
2023-03-31T01:23:05.605Z,23.58
2023-03-31T01:25:51.174Z,23.56
2023-03-31T01:28:29.872Z,23.53
2023-03-31T01:31:05.289Z,23.50
2023-03-31T01:33:41.442Z,23.47
2023-03-31T01:36:37.269Z,23.45
2023-03-31T01:39:07.176Z,23.42
2023-03-31T01:41:38.980Z,23.40
2023-03-31T01:44:16.417Z,23.39
2023-03-31T01:46:53.193Z,23.35
2023-03-31T01:49:35.187Z,23.34
2023-03-31T01:52:20.368Z,23.31
2023-03-31T01:54:50.639Z,23.26
2023-03-31T01:57:16.987Z,23.26
2023-03-31T01:59:46.917Z,23.24
2023-03-31T02:02:14.853Z,23.23
2023-03-31T02:05:07.459Z,23.24
2023-03-31T02:07:42.387Z,23.29
2023-03-31T02:10:09.052Z,23.29
2023-03-31T02:12:35.362Z,23.28
2023-03-31T02:15:02.252Z,23.25
2023-03-31T02:17:32.596Z,23.25
2023-03-31T02:19:59.719Z,23.23
2023-03-31T02:22:26.857Z,23.21
2023-03-31T02:24:53.177Z,23.18
2023-03-31T02:27:21.816Z,23.16
2023-03-31T02:29:48.239Z,23.13
2023-03-31T02:32:21.236Z,23.10
2023-03-31T02:34:47.572Z,23.08
2023-03-31T02:37:13.880Z,23.07
2023-03-31T02:39:40.553Z,23.04
2023-03-31T02:42:09.911Z,23.02
2023-03-31T02:44:36.650Z,23.01
2023-03-31T02:47:03.664Z,23.03
2023-03-31T02:49:29.989Z,23.05
2023-03-31T02:51:56.309Z,23.06
2023-03-31T02:54:28.754Z,23.04
2023-03-31T02:57:13.467Z,23.04
2023-03-31T02:59:48.679Z,23.02
2023-03-31T03:02:27.696Z,23.01
2023-03-31T03:04:59.074Z,23.00
2023-03-31T03:07:31.416Z,22.97
2023-03-31T03:10:06.942Z,22.97
2023-03-31T03:12:42.451Z,22.95
2023-03-31T03:15:18.218Z,22.93
2023-03-31T03:17:44.972Z,22.90
2023-03-31T03:20:11.435Z,22.89
2023-03-31T03:22:38.024Z,22.87
2023-03-31T03:25:05.115Z,22.86
2023-03-31T03:27:32.684Z,22.84
2023-03-31T03:29:59.314Z,22.84
2023-03-31T03:32:25.732Z,22.82
2023-03-31T03:34:52.110Z,22.81
2023-03-31T03:37:18.480Z,22.80
2023-03-31T03:39:44.813Z,22.80
2023-03-31T03:42:11.117Z,22.76
2023-03-31T03:44:37.452Z,22.76
2023-03-31T03:47:03.782Z,22.75
2023-03-31T03:49:30.143Z,22.73
2023-03-31T03:51:56.443Z,22.69
2023-03-31T03:54:22.801Z,22.66
2023-03-31T03:56:49.134Z,22.65
2023-03-31T03:59:15.668Z,22.63
2023-03-31T04:01:42.002Z,22.62
2023-03-31T04:04:08.370Z,22.65
2023-03-31T04:06:34.690Z,22.69
2023-03-31T04:09:01.023Z,22.70
2023-03-31T04:11:28.143Z,22.68
2023-03-31T04:13:54.501Z,22.67
2023-03-31T04:16:20.891Z,22.64
2023-03-31T04:18:48.666Z,22.64
2023-03-31T04:21:24.368Z,22.61
2023-03-31T04:23:58.554Z,22.60
2023-03-31T04:26:30.775Z,22.60
2023-03-31T04:29:00.261Z,22.59
2023-03-31T04:31:26.931Z,22.60
2023-03-31T04:33:53.591Z,22.59
2023-03-31T04:36:20.208Z,22.58
2023-03-31T04:38:46.969Z,22.58
2023-03-31T04:41:13.832Z,22.57
2023-03-31T04:43:40.248Z,22.55
2023-03-31T04:46:06.813Z,22.55
2023-03-31T04:48:33.271Z,22.52
2023-03-31T04:50:59.608Z,22.52
2023-03-31T04:53:26.194Z,22.48
2023-03-31T04:55:52.550Z,22.44
2023-03-31T04:58:19.125Z,22.48
2023-03-31T05:00:45.456Z,22.44
2023-03-31T05:03:11.856Z,22.45
2023-03-31T05:05:38.488Z,22.43
2023-03-31T05:08:04.849Z,22.40
2023-03-31T05:10:31.420Z,22.40
2023-03-31T05:12:57.840Z,22.38
2023-03-31T05:15:26.812Z,22.38
2023-03-31T05:17:53.168Z,22.35
2023-03-31T05:20:19.828Z,22.36
2023-03-31T05:22:46.154Z,22.41
2023-03-31T05:25:18.637Z,22.41
2023-03-31T05:27:47.061Z,22.43
2023-03-31T05:30:13.908Z,22.42
2023-03-31T05:32:40.512Z,22.41
2023-03-31T05:35:07.600Z,22.42
2023-03-31T05:37:33.933Z,22.42
2023-03-31T05:40:00.402Z,22.41
2023-03-31T05:42:26.743Z,22.39
2023-03-31T05:44:53.138Z,22.39
2023-03-31T05:47:20.334Z,22.36
2023-03-31T05:49:46.754Z,22.36
2023-03-31T05:52:13.095Z,22.34
2023-03-31T05:54:39.436Z,22.32
2023-03-31T05:57:05.886Z,22.32
2023-03-31T05:59:32.280Z,22.32
2023-03-31T06:01:59.357Z,22.31
2023-03-31T06:04:25.838Z,22.29
2023-03-31T06:06:54.026Z,22.22
2023-03-31T06:09:20.377Z,22.27
2023-03-31T06:11:48.308Z,22.29
2023-03-31T06:14:16.412Z,22.31
2023-03-31T06:16:42.721Z,22.32
2023-03-31T06:19:09.106Z,22.33
2023-03-31T06:21:35.448Z,22.30
2023-03-31T06:24:01.773Z,22.36
2023-03-31T06:26:28.087Z,22.35
2023-03-31T06:28:54.393Z,22.34
2023-03-31T06:31:21.331Z,22.40
2023-03-31T06:33:47.837Z,22.49
2023-03-31T06:36:14.943Z,22.64
2023-03-31T06:38:41.522Z,22.75
2023-03-31T06:41:08.784Z,22.81
2023-03-31T06:43:35.418Z,22.82
2023-03-31T06:46:01.854Z,22.84
2023-03-31T06:48:28.502Z,22.77
2023-03-31T06:50:54.848Z,22.74
2023-03-31T06:53:22.119Z,22.72
2023-03-31T06:55:48.469Z,22.74
2023-03-31T06:58:14.806Z,22.69
2023-03-31T07:00:41.213Z,22.67
2023-03-31T07:03:09.119Z,22.66
2023-03-31T07:05:35.861Z,22.64
2023-03-31T07:08:02.559Z,22.66
2023-03-31T07:10:29.620Z,22.65
2023-03-31T07:12:55.979Z,22.62
2023-03-31T07:15:22.316Z,22.62
2023-03-31T07:17:51.126Z,22.58
2023-03-31T07:20:17.791Z,22.58
2023-03-31T07:22:44.332Z,22.57
2023-03-31T07:25:11.006Z,22.45
2023-03-31T07:27:37.333Z,22.48
2023-03-31T07:30:07.437Z,22.50
2023-03-31T07:32:33.999Z,22.46
2023-03-31T07:35:00.560Z,22.47
2023-03-31T07:37:26.877Z,22.42
2023-03-31T07:39:53.194Z,22.42
2023-03-31T07:42:19.567Z,22.47
2023-03-31T07:44:45.881Z,22.57
2023-03-31T07:47:12.198Z,22.61
2023-03-31T07:49:38.517Z,22.66
2023-03-31T07:52:04.850Z,22.66
2023-03-31T07:54:31.205Z,22.65
2023-03-31T07:57:01.578Z,22.65
2023-03-31T07:59:28.568Z,22.65
2023-03-31T08:01:54.932Z,22.62
2023-03-31T08:04:21.580Z,22.54
2023-03-31T08:06:48.171Z,22.53
2023-03-31T08:09:14.483Z,22.55
2023-03-31T08:11:40.795Z,22.56
2023-03-31T08:14:07.165Z,22.56
2023-03-31T08:16:33.534Z,22.56
2023-03-31T08:19:00.102Z,22.50
2023-03-31T08:21:26.449Z,22.49
2023-03-31T08:23:55.861Z,22.52
2023-03-31T08:26:24.267Z,22.52
2023-03-31T08:28:50.653Z,22.49
2023-03-31T08:31:18.930Z,22.47
2023-03-31T08:33:45.900Z,22.45
2023-03-31T08:36:12.538Z,22.42
2023-03-31T08:38:42.190Z,22.41
2023-03-31T08:41:14.145Z,22.38
2023-03-31T08:43:41.760Z,22.38
2023-03-31T08:46:10.921Z,22.38
2023-03-31T08:48:38.786Z,22.36
2023-03-31T08:51:11.761Z,22.36
2023-03-31T08:53:39.517Z,22.37
2023-03-31T08:56:07.037Z,22.44
2023-03-31T08:58:36.234Z,22.51
2023-03-31T09:01:21.350Z,22.55
2023-03-31T09:03:54.028Z,22.53
2023-03-31T09:06:22.546Z,22.51
2023-03-31T09:08:48.868Z,22.50
2023-03-31T09:11:20.502Z,22.59
2023-03-31T09:13:51.453Z,22.60
2023-03-31T09:16:23.837Z,22.55
2023-03-31T09:18:50.215Z,22.55
2023-03-31T09:21:18.736Z,22.63
2023-03-31T09:23:46.897Z,22.59
2023-03-31T09:26:18.935Z,22.62
2023-03-31T09:28:45.259Z,22.56
2023-03-31T09:31:13.963Z,22.53
2023-03-31T09:33:46.685Z,22.49
2023-03-31T09:36:19.372Z,22.51
2023-03-31T09:38:46.000Z,22.53
2023-03-31T09:41:12.828Z,22.50
2023-03-31T09:43:39.715Z,22.52
2023-03-31T09:46:10.600Z,22.56
2023-03-31T09:48:37.205Z,22.53
2023-03-31T09:51:07.180Z,22.57
2023-03-31T09:53:38.619Z,22.53
2023-03-31T09:56:06.290Z,22.50
2023-03-31T09:58:32.756Z,22.50
2023-03-31T10:01:02.902Z,22.43
2023-03-31T10:03:29.616Z,22.49
2023-03-31T10:05:56.620Z,22.56
2023-03-31T10:08:24.664Z,22.67
2023-03-31T10:10:51.833Z,22.76
2023-03-31T10:13:22.501Z,22.88
2023-03-31T10:15:51.913Z,22.93
2023-03-31T10:18:19.067Z,22.96
2023-03-31T10:20:51.699Z,22.96
2023-03-31T10:23:27.621Z,22.98
2023-03-31T10:25:53.945Z,22.98
2023-03-31T10:28:20.595Z,22.90
2023-03-31T10:30:47.856Z,22.89
2023-03-31T10:33:22.288Z,22.87
2023-03-31T10:35:50.451Z,22.87
2023-03-31T10:38:34.536Z,22.88
2023-03-31T10:41:00.918Z,22.89
2023-03-31T10:43:36.895Z,22.89
2023-03-31T10:46:04.233Z,22.89
2023-03-31T10:48:31.410Z,22.89
2023-03-31T10:51:14.908Z,22.91
2023-03-31T10:53:42.117Z,22.90
2023-03-31T10:56:14.550Z,22.91
2023-03-31T10:58:51.887Z,22.93
2023-03-31T11:01:24.567Z,22.88
2023-03-31T11:03:54.721Z,22.88
2023-03-31T11:06:21.090Z,22.86
2023-03-31T11:09:00.651Z,22.83
2023-03-31T11:11:31.147Z,22.81
2023-03-31T11:14:16.387Z,22.84
2023-03-31T11:17:01.876Z,22.89
2023-03-31T11:19:40.254Z,22.98
2023-03-31T11:22:09.876Z,23.01
2023-03-31T11:24:41.921Z,23.10
2023-03-31T11:27:08.180Z,23.23
2023-03-31T11:29:40.279Z,23.31
2023-03-31T11:32:16.933Z,23.34
2023-03-31T11:34:53.115Z,23.36
2023-03-31T11:37:35.418Z,23.37
2023-03-31T11:40:13.426Z,23.39
2023-03-31T11:42:42.423Z,23.36
2023-03-31T11:45:16.220Z,23.38
2023-03-31T11:47:44.594Z,23.37
2023-03-31T11:50:18.665Z,23.37
2023-03-31T11:52:48.225Z,23.36
2023-03-31T11:55:18.250Z,23.36
2023-03-31T11:57:51.031Z,23.34
2023-03-31T12:00:25.139Z,23.34
2023-03-31T12:05:17.942Z,23.29
2023-03-31T12:07:47.274Z,23.26
2023-03-31T12:10:20.540Z,23.25
2023-03-31T12:12:57.377Z,23.25
2023-03-31T12:15:24.829Z,23.21
2023-03-31T12:17:56.317Z,23.23
2023-03-31T12:20:33.322Z,23.19
2023-03-31T12:23:00.173Z,23.20
2023-03-31T12:25:27.187Z,23.17
2023-03-31T12:27:54.778Z,23.21
2023-03-31T12:30:29.293Z,23.31
2023-03-31T12:32:56.733Z,23.32
2023-03-31T12:35:27.360Z,23.39
2023-03-31T12:37:53.613Z,23.43
2023-03-31T12:40:38.616Z,23.46
2023-03-31T12:43:23.943Z,23.52
2023-03-31T12:46:00.514Z,23.59
2023-03-31T12:48:43.218Z,23.65
2023-03-31T12:51:20.730Z,23.67
2023-03-31T12:53:46.992Z,23.69
2023-03-31T12:56:13.327Z,23.67
2023-03-31T12:58:40.653Z,23.68
2023-03-31T13:01:07.762Z,23.67
2023-03-31T13:03:34.561Z,23.71
2023-03-31T13:06:01.224Z,23.74
2023-03-31T13:08:46.488Z,23.75
2023-03-31T13:11:12.969Z,23.71
2023-03-31T13:14:00.707Z,23.66
2023-03-31T13:16:27.296Z,23.58
2023-03-31T13:18:53.903Z,23.49
2023-03-31T13:21:20.280Z,23.54
2023-03-31T13:23:46.655Z,23.53
2023-03-31T13:26:31.721Z,23.51
2023-03-31T13:29:10.214Z,23.50
2023-03-31T13:31:55.247Z,23.50
2023-03-31T13:34:21.577Z,23.46
2023-03-31T13:37:06.753Z,23.43
2023-03-31T13:39:52.097Z,23.38
2023-03-31T13:42:21.549Z,23.40
2023-03-31T13:45:01.180Z,23.45
2023-03-31T13:47:34.411Z,23.48
2023-03-31T13:50:04.017Z,23.50
2023-03-31T13:52:33.284Z,23.47
2023-03-31T13:55:18.432Z,23.45
2023-03-31T13:57:51.007Z,23.44
2023-03-31T14:00:27.195Z,23.46
2023-03-31T14:03:09.196Z,23.45
2023-03-31T14:05:39.664Z,23.44
2023-03-31T14:08:07.939Z,23.44
2023-03-31T14:10:34.950Z,23.42
2023-03-31T14:13:07.975Z,23.43
2023-03-31T14:15:35.376Z,23.43
2023-03-31T14:18:02.115Z,23.43
2023-03-31T14:20:30.721Z,23.40
2023-03-31T14:23:15.939Z,23.38
2023-03-31T14:25:42.806Z,23.38
2023-03-31T14:28:09.648Z,23.38
2023-03-31T14:30:52.728Z,23.35
2023-03-31T14:33:25.033Z,23.34
2023-03-31T14:35:51.351Z,23.36
2023-03-31T14:38:18.302Z,23.35
2023-03-31T14:40:45.614Z,23.32
2023-03-31T14:43:18.225Z,23.29
2023-03-31T14:45:44.544Z,23.27
2023-03-31T14:48:13.461Z,23.26
2023-03-31T14:50:42.186Z,23.24
2023-03-31T14:53:14.057Z,23.23
2023-03-31T14:55:57.301Z,23.24
2023-03-31T14:58:32.342Z,23.29
2023-03-31T15:00:58.723Z,23.35
2023-03-31T15:03:25.632Z,23.40
2023-03-31T15:05:51.940Z,23.43
2023-03-31T15:08:19.374Z,23.42
2023-03-31T15:10:49.261Z,23.43
2023-03-31T15:13:17.188Z,23.40
2023-03-31T15:15:46.163Z,23.43
2023-03-31T15:18:13.475Z,23.40
2023-03-31T15:20:40.766Z,23.39
2023-03-31T15:23:21.250Z,23.39
2023-03-31T15:25:47.566Z,23.36
2023-03-31T15:28:14.793Z,23.33
2023-03-31T15:30:41.227Z,23.32
2023-03-31T15:33:18.293Z,23.30
2023-03-31T15:35:46.210Z,23.29
2023-03-31T15:38:12.534Z,23.27
2023-03-31T15:40:40.504Z,23.26
2023-03-31T15:43:25.532Z,23.26
2023-03-31T15:45:53.076Z,23.24
2023-03-31T15:48:23.694Z,23.20
2023-03-31T15:50:50.008Z,23.20
2023-03-31T15:53:24.418Z,23.18
2023-03-31T15:55:52.065Z,23.16
2023-03-31T15:58:18.428Z,23.12
2023-03-31T16:00:48.143Z,23.10
2023-03-31T16:03:16.984Z,23.08
2023-03-31T16:05:54.748Z,23.06
2023-03-31T16:08:26.497Z,23.04
2023-03-31T16:10:57.118Z,23.08
2023-03-31T16:13:23.490Z,23.17
2023-03-31T16:15:49.924Z,23.22
2023-03-31T16:18:17.523Z,23.24
2023-03-31T16:20:46.069Z,23.26
2023-03-31T16:23:16.252Z,23.25
2023-03-31T16:25:42.660Z,23.25
2023-03-31T16:28:08.978Z,23.25
2023-03-31T16:30:36.431Z,23.25
2023-03-31T16:33:03.031Z,23.23
2023-03-31T16:35:34.349Z,23.24
2023-03-31T16:38:01.827Z,23.23
2023-03-31T16:40:28.959Z,23.21
2023-03-31T16:43:07.463Z,23.19
2023-03-31T16:45:33.800Z,23.19
2023-03-31T16:48:08.910Z,23.18
2023-03-31T16:50:41.954Z,23.18
2023-03-31T16:53:09.167Z,23.19
2023-03-31T16:55:35.548Z,23.17
2023-03-31T16:58:03.494Z,23.16
2023-03-31T17:00:30.415Z,23.13
2023-03-31T17:02:57.810Z,23.09
2023-03-31T17:05:24.305Z,23.09
2023-03-31T17:07:50.675Z,23.09
2023-03-31T17:10:17.403Z,23.07
2023-03-31T17:12:43.707Z,23.07
2023-03-31T17:15:10.395Z,23.05
2023-03-31T17:17:36.914Z,23.07
2023-03-31T17:20:04.298Z,23.05
2023-03-31T17:22:30.626Z,23.12
2023-03-31T17:24:58.421Z,23.26
2023-03-31T17:27:25.404Z,23.36
2023-03-31T17:29:51.952Z,23.49
2023-03-31T17:32:19.027Z,23.50
2023-03-31T17:34:47.826Z,23.53
2023-03-31T17:37:17.094Z,23.53
2023-03-31T17:39:43.795Z,23.52
2023-03-31T17:42:10.607Z,23.52
2023-03-31T17:44:37.142Z,23.50
2023-03-31T17:47:03.461Z,23.48
2023-03-31T17:49:29.848Z,23.46
2023-03-31T17:51:57.285Z,23.42
2023-03-31T17:54:23.626Z,23.38
2023-03-31T17:56:50.259Z,23.38
2023-03-31T17:59:17.169Z,23.37
2023-03-31T18:01:43.765Z,23.35
2023-03-31T18:04:10.275Z,23.39
2023-03-31T18:06:36.668Z,23.38
2023-03-31T18:09:03.150Z,23.37
2023-03-31T18:11:31.878Z,23.37
2023-03-31T18:14:01.773Z,23.35
2023-03-31T18:16:29.185Z,23.38
2023-03-31T18:18:55.799Z,23.32
2023-03-31T18:21:23.865Z,23.25
2023-03-31T18:23:52.645Z,23.20
2023-03-31T18:26:19.265Z,23.18
2023-03-31T18:28:45.865Z,23.21
2023-03-31T18:31:12.462Z,23.20
2023-03-31T18:33:39.092Z,23.25
2023-03-31T18:36:05.941Z,23.23
2023-03-31T18:38:32.603Z,23.14
2023-03-31T18:40:58.951Z,23.30
2023-03-31T18:43:25.898Z,23.40
2023-03-31T18:45:52.518Z,23.38
2023-03-31T18:48:19.178Z,23.44
2023-03-31T18:50:46.013Z,23.46
2023-03-31T18:53:15.078Z,23.41
2023-03-31T18:55:41.810Z,23.40
2023-03-31T18:58:08.775Z,23.37
2023-03-31T19:00:35.903Z,23.36
2023-03-31T19:03:02.738Z,23.36
2023-03-31T19:05:30.069Z,23.34
2023-03-31T19:07:56.507Z,23.29
2023-03-31T19:10:22.835Z,23.31
2023-03-31T19:12:49.195Z,23.29
2023-03-31T19:15:15.747Z,23.29
2023-03-31T19:17:42.123Z,23.30
2023-03-31T19:20:08.768Z,23.26
2023-03-31T19:22:35.088Z,23.26
2023-03-31T19:25:01.661Z,23.26
2023-03-31T19:27:28.014Z,23.20
2023-03-31T19:29:54.334Z,23.20
2023-03-31T19:32:20.898Z,23.19
2023-03-31T19:34:47.284Z,23.15
2023-03-31T19:37:13.699Z,23.15
2023-03-31T19:39:40.244Z,23.13
2023-03-31T19:42:06.549Z,23.12
2023-03-31T19:44:32.878Z,23.11
2023-03-31T19:46:59.224Z,23.15
2023-03-31T19:49:25.788Z,23.21
2023-03-31T19:51:52.382Z,23.31
2023-03-31T19:54:18.741Z,23.34
2023-03-31T19:56:45.562Z,23.37
2023-03-31T19:59:11.891Z,23.36
2023-03-31T20:01:38.728Z,23.40
2023-03-31T20:04:05.348Z,23.37
2023-03-31T20:06:31.883Z,23.34
2023-03-31T20:09:00.394Z,23.29
2023-03-31T20:11:27.521Z,23.27
2023-03-31T20:13:53.913Z,23.24
2023-03-31T20:16:20.842Z,23.23
2023-03-31T20:18:53.924Z,23.21
2023-03-31T20:21:20.496Z,23.18
2023-03-31T20:23:46.944Z,23.17
2023-03-31T20:26:14.199Z,23.15
2023-03-31T20:28:40.602Z,23.12
2023-03-31T20:31:11.422Z,23.08
2023-03-31T20:33:38.030Z,23.08
2023-03-31T20:36:08.184Z,23.04
2023-03-31T20:38:37.827Z,23.06
2023-03-31T20:41:04.156Z,23.03
2023-03-31T20:43:30.519Z,23.02
2023-03-31T20:46:02.589Z,23.00
2023-03-31T20:48:32.534Z,22.97
2023-03-31T20:50:58.861Z,22.98
2023-03-31T20:53:25.188Z,22.94
2023-03-31T20:55:51.784Z,22.97
2023-03-31T20:58:18.141Z,22.93
2023-03-31T21:00:44.794Z,22.87
2023-03-31T21:03:11.257Z,22.89
2023-03-31T21:05:43.969Z,22.85
2023-03-31T21:08:10.651Z,22.88
2023-03-31T21:10:39.020Z,22.80
2023-03-31T21:13:05.327Z,22.85
2023-03-31T21:15:31.854Z,22.84
2023-03-31T21:17:58.393Z,22.81
2023-03-31T21:20:24.716Z,22.81
2023-03-31T21:22:51.115Z,22.80
2023-03-31T21:25:17.423Z,22.78
2023-03-31T21:27:43.749Z,22.75
2023-03-31T21:30:10.407Z,22.75
2023-03-31T21:32:36.749Z,22.74
2023-03-31T21:35:03.102Z,22.71
2023-03-31T21:37:29.740Z,22.74
2023-03-31T21:39:56.067Z,22.72
2023-03-31T21:42:22.610Z,22.73
2023-03-31T21:44:49.282Z,22.71
2023-03-31T21:47:15.735Z,22.71
2023-03-31T21:49:42.052Z,22.72
2023-03-31T21:52:09.440Z,22.69
2023-03-31T21:54:35.761Z,22.66
2023-03-31T21:57:02.119Z,22.65
2023-03-31T21:59:28.468Z,22.67
2023-03-31T22:01:54.837Z,22.65
2023-03-31T22:04:21.819Z,22.66
2023-03-31T22:06:48.477Z,22.63
2023-03-31T22:09:15.246Z,22.63
2023-03-31T22:11:42.047Z,22.63
2023-03-31T22:14:08.427Z,22.62
2023-03-31T22:16:34.763Z,22.61
2023-03-31T22:19:01.082Z,22.62
2023-03-31T22:21:27.440Z,22.60
2023-03-31T22:23:54.456Z,22.60
2023-03-31T22:26:21.686Z,22.58
2023-03-31T22:28:48.185Z,22.57
2023-03-31T22:31:14.525Z,22.57
2023-03-31T22:33:40.885Z,22.55
2023-03-31T22:36:07.491Z,22.55
2023-03-31T22:38:33.867Z,22.58
2023-03-31T22:41:00.472Z,22.49
2023-03-31T22:43:27.178Z,22.39
2023-03-31T22:45:53.532Z,22.33
2023-03-31T22:48:19.914Z,22.28
2023-03-31T22:50:46.287Z,22.27
2023-03-31T22:53:12.605Z,22.30
2023-03-31T22:55:42.630Z,22.32
2023-03-31T22:58:08.954Z,22.30
2023-03-31T23:00:35.646Z,22.29
2023-03-31T23:03:02.087Z,22.30
2023-03-31T23:05:28.493Z,22.28
2023-03-31T23:07:54.817Z,22.27
2023-03-31T23:10:21.859Z,22.25
2023-03-31T23:12:48.179Z,22.24
2023-03-31T23:15:14.501Z,22.24
2023-03-31T23:17:40.871Z,22.24
2023-03-31T23:20:07.484Z,22.24
2023-03-31T23:22:33.989Z,22.22
2023-03-31T23:25:00.302Z,22.21
2023-03-31T23:27:26.611Z,22.19
2023-03-31T23:29:52.940Z,22.18
2023-03-31T23:32:19.369Z,22.19
2023-03-31T23:34:45.854Z,22.17
2023-03-31T23:37:12.652Z,22.17
2023-03-31T23:39:39.101Z,22.15
2023-03-31T23:42:06.113Z,22.14
2023-03-31T23:44:32.694Z,22.14
2023-03-31T23:46:59.155Z,22.13
2023-03-31T23:49:25.527Z,22.12
2023-03-31T23:51:51.945Z,22.11
2023-03-31T23:54:18.261Z,22.11
2023-03-31T23:56:44.642Z,22.09
2023-03-31T23:59:11.184Z,22.08
